Menalon — SXCH — position and weather

sailwx.info

Track history (hours):
 
Tides and Currents Weather Stations Pressure Air Temp Water Temp Dewpoint Dewpoint Depression Visibility Wind Speed Wind Dir Waves Ship Positions

Menalon

Last reported at 2014-Oct-01 21:33 UTC. Time now 2014-Oct-01 22:20 UTC.
Position N 37°57' E 023°35'.

Length 83 m; draft 4 m.

Type: Ship (hazmat cat C). MMSI: 239741000.

Date/timePositionNaut miles runAvg speedWind from/ knotsBaromVisibWave heightAir tempDewpointWater temp
2014-Oct-01 21:33N 37°57' E 023°35'0 0.0
2014-Oct-01 20:33N 37°57' E 023°35'0 0.0
2014-Oct-01 19:33N 37°57' E 023°35'0 0.0
2014-Oct-01 18:33N 37°57' E 023°35'0 0.0
2014-Oct-01 17:33N 37°57' E 023°35'0 0.0
2014-Oct-01 16:33N 37°57' E 023°35'0 0.0
2014-Oct-01 15:33N 37°57' E 023°35'0 0.0
2014-Oct-01 14:33N 37°57' E 023°35'0 0.0
2014-Oct-01 13:33N 37°57' E 023°35'0 0.0
2014-Oct-01 12:33N 37°57' E 023°35'0 0.0
2014-Oct-01 11:33N 37°57' E 023°35'0 0.0
2014-Oct-01 10:33N 37°57' E 023°35'0 0.0
2014-Oct-01 09:33N 37°57' E 023°35'0 0.0
2014-Oct-01 08:33N 37°57' E 023°35'0 0.0
2014-Oct-01 07:33N 37°57' E 023°35'0 0.0
2014-Oct-01 06:33N 37°57' E 023°35'0 0.0
2014-Oct-01 05:33N 37°57' E 023°35'0 0.0
2014-Oct-01 04:33N 37°57' E 023°35'2 1.8
2014-Oct-01 03:33N 37°56' E 023°36'1110.7
2014-Oct-01 02:33N 37°46' E 023°42'  
2014-Sep-28 07:20N 37°35' E 023°42'810.0
2014-Sep-28 06:33N 37°43' E 023°41'1010.4
2014-Sep-28 05:33N 37°52' E 023°35'8 8.0
2014-Sep-28 04:33N 38°00' E 023°33'1 1.4
2014-Sep-28 03:33N 38°01' E 023°34'0 0.0
2014-Sep-28 02:33N 38°01' E 023°34'0 0.0
2014-Sep-28 01:33N 38°01' E 023°35'0 0.0
2014-Sep-28 00:33N 38°01' E 023°35'0 0.0
2014-Sep-27 23:33N 38°01' E 023°35'1 1.2
2014-Sep-27 22:33N 38°02' E 023°36'0 0.0
2014-Sep-27 21:33N 38°02' E 023°36'0 0.0
2014-Sep-27 20:33N 38°02' E 023°36'0 0.0
2014-Sep-27 19:33N 38°02' E 023°36'0 0.0
2014-Sep-27 18:33N 38°02' E 023°36'0 0.0
2014-Sep-27 17:33N 38°02' E 023°36'0 0.0
2014-Sep-27 16:33N 38°02' E 023°36'0 0.0
2014-Sep-27 15:33N 38°02' E 023°36'0 0.0
2014-Sep-27 14:32N 38°02' E 023°36'1 0.9
2014-Sep-27 13:33N 38°01' E 023°35'0 0.0
2014-Sep-27 12:33N 38°01' E 023°35'0 0.0
2014-Sep-27 11:33N 38°01' E 023°35'0 0.0
2014-Sep-27 10:33N 38°01' E 023°35'0 0.0
2014-Sep-27 09:33N 38°01' E 023°35'0 0.0
2014-Sep-27 08:33N 38°01' E 023°35'0 0.0
2014-Sep-27 07:33N 38°01' E 023°35'0 0.0
2014-Sep-27 06:33N 38°01' E 023°35'0 0.0
2014-Sep-27 05:33N 38°01' E 023°35'0 0.0
2014-Sep-27 04:33N 38°01' E 023°35'0 0.0
2014-Sep-27 03:33N 38°01' E 023°35'0 0.0
2014-Sep-27 02:33N 38°01' E 023°35'0 0.0
2014-Sep-27 01:33N 38°01' E 023°35'0 0.0
2014-Sep-27 00:33N 38°01' E 023°35'0 0.0
2014-Sep-26 23:33N 38°01' E 023°35'0 0.0
2014-Sep-26 22:33N 38°01' E 023°35'0 0.0
2014-Sep-26 21:33N 38°01' E 023°35'0 0.0
2014-Sep-26 20:33N 38°01' E 023°35'0 0.0
2014-Sep-26 19:32N 38°01' E 023°35'0 0.0
2014-Sep-26 18:33N 38°01' E 023°35'0 0.0
2014-Sep-26 17:33N 38°01' E 023°35'0 0.0
2014-Sep-26 16:33N 38°01' E 023°35'0 0.0
2014-Sep-26 15:33N 38°01' E 023°35'0 0.1
2014-Sep-26 14:33N 38°01' E 023°35'0 0.0
2014-Sep-26 13:33N 38°01' E 023°35'0 0.0
2014-Sep-26 12:33N 38°01' E 023°35'0 0.0
2014-Sep-26 11:33N 38°01' E 023°35'0 0.1
2014-Sep-26 10:33N 38°01' E 023°35'4 3.9
2014-Sep-26 09:33N 37°57' E 023°34'0 0.1
2014-Sep-26 08:33N 37°57' E 023°35'0 0.0
2014-Sep-26 07:33N 37°57' E 023°34'0 0.0
2014-Sep-26 06:33N 37°57' E 023°34'0 0.0
2014-Sep-26 05:33N 37°57' E 023°34'0 0.0
2014-Sep-26 04:33N 37°57' E 023°35'0 0.0
2014-Sep-26 03:33N 37°57' E 023°35'0 0.0
2014-Sep-26 02:33N 37°57' E 023°35'0 0.0
2014-Sep-26 01:33N 37°57' E 023°35'0 0.0
2014-Sep-26 00:33N 37°57' E 023°35'0 0.0
2014-Sep-25 23:33N 37°57' E 023°35'0 0.0
2014-Sep-25 22:33N 37°57' E 023°35'0 0.0
2014-Sep-25 21:33N 37°57' E 023°35'0 0.0
2014-Sep-25 20:33N 37°57' E 023°35'0 0.0
2014-Sep-25 19:33N 37°57' E 023°35'0 0.0
2014-Sep-25 18:33N 37°57' E 023°35'0 0.0
2014-Sep-25 17:33N 37°57' E 023°35'0 0.0
2014-Sep-25 16:33N 37°57' E 023°35'0 0.0
2014-Sep-25 15:33N 37°57' E 023°35'0 0.0
2014-Sep-25 14:33N 37°57' E 023°35'0 0.1
2014-Sep-25 13:33N 37°57' E 023°34'0 0.0
2014-Sep-25 12:33N 37°57' E 023°34'0 0.0
2014-Sep-25 11:33N 37°57' E 023°34'0 0.0
2014-Sep-25 10:33N 37°57' E 023°34'5 4.6
2014-Sep-25 09:33N 38°02' E 023°32'1 0.8
2014-Sep-25 08:33N 38°02' E 023°32'0 0.0
2014-Sep-25 07:33N 38°02' E 023°32'0 0.0
2014-Sep-25 06:33N 38°02' E 023°32'0 0.0
2014-Sep-25 05:33N 38°02' E 023°32'0 0.1
2014-Sep-25 04:33N 38°02' E 023°32'1 0.5
2014-Sep-25 03:33N 38°02' E 023°32'0 0.0
2014-Sep-25 02:33N 38°02' E 023°32'0 0.0
2014-Sep-25 01:33N 38°02' E 023°32'0 0.0
2014-Sep-25 00:33N 38°02' E 023°32'0 0.0
2014-Sep-24 23:32N 38°02' E 023°32'0 0.0
2014-Sep-24 22:33N 38°02' E 023°32'0 0.1
2014-Sep-24 21:33N 38°02' E 023°32'0 0.1
2014-Sep-24 20:33N 38°02' E 023°32'3 3.1
2014-Sep-24 19:33N 38°02' E 023°36'0 0.0
2014-Sep-24 18:33N 38°02' E 023°36'0 0.0
2014-Sep-24 17:33N 38°02' E 023°36'0 0.0
2014-Sep-24 16:33N 38°02' E 023°36'1 0.8
2014-Sep-24 15:33N 38°01' E 023°35'0 0.0
2014-Sep-24 14:33N 38°01' E 023°35'0 0.0
2014-Sep-24 13:30N 38°01' E 023°35'0 0.0
2014-Sep-24 12:33N 38°01' E 023°35'3 2.5
2014-Sep-24 11:31N 37°59' E 023°33'2 2.2
2014-Sep-24 10:33N 37°57' E 023°35'0 0.1
2014-Sep-24 09:33N 37°57' E 023°35'0 0.0
2014-Sep-24 08:33N 37°57' E 023°35'0 0.0
2014-Sep-24 07:33N 37°57' E 023°35'0 0.0
2014-Sep-24 06:33N 37°57' E 023°35'0 0.0
2014-Sep-24 05:33N 37°57' E 023°35'0 0.0
2014-Sep-24 04:33N 37°57' E 023°35'0 0.0
2014-Sep-24 03:33N 37°57' E 023°35'0 0.0
2014-Sep-24 02:33N 37°57' E 023°35'0 0.0
2014-Sep-24 01:33N 37°57' E 023°35'0 0.0
2014-Sep-24 00:33N 37°57' E 023°35'0 0.0
2014-Sep-23 23:33N 37°57' E 023°35'0 0.0
2014-Sep-23 22:33N 37°57' E 023°35'0 0.0
2014-Sep-23 21:33N 37°57' E 023°35'0 0.0
2014-Sep-23 20:33N 37°57' E 023°35'0 0.0
2014-Sep-23 19:32N 37°57' E 023°35'0 0.0
2014-Sep-23 18:33N 37°57' E 023°35'0 0.1
2014-Sep-23 17:33N 37°57' E 023°35'0 0.0
2014-Sep-23 16:33N 37°57' E 023°35'0 0.0
2014-Sep-23 15:33N 37°57' E 023°35'0 0.0
2014-Sep-23 14:33N 37°57' E 023°35'0 0.0
2014-Sep-23 13:33N 37°57' E 023°35'1 1.0
2014-Sep-23 12:33N 37°57' E 023°36'0 0.2
2014-Sep-23 11:33N 37°57' E 023°36'0 0.0
2014-Sep-23 10:33N 37°57' E 023°36'1 0.8
2014-Sep-23 09:33N 37°57' E 023°35'0 0.4
2014-Sep-23 08:33N 37°57' E 023°35'0 0.0
2014-Sep-23 07:33N 37°57' E 023°35'0 0.0
2014-Sep-23 06:33N 37°57' E 023°35'0 0.1
2014-Sep-23 05:33N 37°57' E 023°35'0 0.0
2014-Sep-23 04:33N 37°57' E 023°35'0 0.0
2014-Sep-23 03:33N 37°57' E 023°35'0 0.0
2014-Sep-23 02:33N 37°57' E 023°35'0 0.0
2014-Sep-23 01:33N 37°57' E 023°35'0 0.0
2014-Sep-23 00:33N 37°57' E 023°35'0 0.0
2014-Sep-22 23:33N 37°57' E 023°35'0 0.0
2014-Sep-22 22:33N 37°57' E 023°35'0 0.0
2014-Sep-22 21:33N 37°57' E 023°35'0 0.1
2014-Sep-22 20:33N 37°57' E 023°35'0 0.0
2014-Sep-22 19:33N 37°57' E 023°35'0 0.0
2014-Sep-22 18:33N 37°57' E 023°35'0 0.1
2014-Sep-22 17:33N 37°57' E 023°34'0 0.0
2014-Sep-22 16:33N 37°57' E 023°34'0 0.0
2014-Sep-22 15:33N 37°57' E 023°34'0 0.0
2014-Sep-22 14:33N 37°57' E 023°34'0 0.0
2014-Sep-22 13:33N 37°57' E 023°34'0 0.0
2014-Sep-22 12:33N 37°57' E 023°34'2 1.9
2014-Sep-22 11:33N 37°56' E 023°33'0 0.0
2014-Sep-22 10:33N 37°56' E 023°33'2 1.5
2014-Sep-22 09:33N 37°57' E 023°35'6 5.7
2014-Sep-22 08:33N 38°02' E 023°31'0 0.1
2014-Sep-22 07:33N 38°02' E 023°31'0 0.0
2014-Sep-22 06:33N 38°02' E 023°31'0 0.0
2014-Sep-22 05:33N 38°02' E 023°31'2 1.6
2014-Sep-22 04:33N 38°00' E 023°32'4 3.6
2014-Sep-22 03:33N 37°57' E 023°35'0 0.0
2014-Sep-22 02:33N 37°57' E 023°35'0 0.0
2014-Sep-22 01:33N 37°57' E 023°35'0 0.0
2014-Sep-22 00:33N 37°57' E 023°35'0 0.0
2014-Sep-21 23:33N 37°57' E 023°35'0 0.0
2014-Sep-21 22:33N 37°57' E 023°35'0 0.1
2014-Sep-21 21:33N 37°57' E 023°35'  
Track history (hours):
 
Tides and Currents Weather Stations Pressure Air Temp Water Temp Dewpoint Dewpoint Depression Visibility Wind Speed Wind Dir Waves Ship Positions

Menalon

Last reported at 2014-Oct-01 21:33 UTC. Time now 2014-Oct-01 22:20 UTC.
Position N 37°57' E 023°35'.

Length 83 m; draft 4 m.

Type: Ship (hazmat cat C). MMSI: 239741000.

Date/timePositionNaut miles runAvg speedWind from/ knotsBaromVisibWave heightAir tempDewpointWater temp
2014-Oct-01 21:33N 37°57' E 023°35'0 0.0
2014-Oct-01 20:33N 37°57' E 023°35'0 0.0
2014-Oct-01 19:33N 37°57' E 023°35'0 0.0
2014-Oct-01 18:33N 37°57' E 023°35'0 0.0
2014-Oct-01 17:33N 37°57' E 023°35'0 0.0
2014-Oct-01 16:33N 37°57' E 023°35'0 0.0
2014-Oct-01 15:33N 37°57' E 023°35'0 0.0
2014-Oct-01 14:33N 37°57' E 023°35'0 0.0
2014-Oct-01 13:33N 37°57' E 023°35'0 0.0
2014-Oct-01 12:33N 37°57' E 023°35'0 0.0
2014-Oct-01 11:33N 37°57' E 023°35'0 0.0
2014-Oct-01 10:33N 37°57' E 023°35'0 0.0
2014-Oct-01 09:33N 37°57' E 023°35'0 0.0
2014-Oct-01 08:33N 37°57' E 023°35'0 0.0
2014-Oct-01 07:33N 37°57' E 023°35'0 0.0
2014-Oct-01 06:33N 37°57' E 023°35'0 0.0
2014-Oct-01 05:33N 37°57' E 023°35'0 0.0
2014-Oct-01 04:33N 37°57' E 023°35'2 1.8
2014-Oct-01 03:33N 37°56' E 023°36'1110.7
2014-Oct-01 02:33N 37°46' E 023°42'  
2014-Sep-28 07:20N 37°35' E 023°42'810.0
2014-Sep-28 06:33N 37°43' E 023°41'1010.4
2014-Sep-28 05:33N 37°52' E 023°35'8 8.0
2014-Sep-28 04:33N 38°00' E 023°33'1 1.4
2014-Sep-28 03:33N 38°01' E 023°34'0 0.0
2014-Sep-28 02:33N 38°01' E 023°34'0 0.0
2014-Sep-28 01:33N 38°01' E 023°35'0 0.0
2014-Sep-28 00:33N 38°01' E 023°35'0 0.0
2014-Sep-27 23:33N 38°01' E 023°35'1 1.2
2014-Sep-27 22:33N 38°02' E 023°36'0 0.0
2014-Sep-27 21:33N 38°02' E 023°36'0 0.0
2014-Sep-27 20:33N 38°02' E 023°36'0 0.0
2014-Sep-27 19:33N 38°02' E 023°36'0 0.0
2014-Sep-27 18:33N 38°02' E 023°36'0 0.0
2014-Sep-27 17:33N 38°02' E 023°36'0 0.0
2014-Sep-27 16:33N 38°02' E 023°36'0 0.0
2014-Sep-27 15:33N 38°02' E 023°36'0 0.0
2014-Sep-27 14:32N 38°02' E 023°36'1 0.9
2014-Sep-27 13:33N 38°01' E 023°35'0 0.0
2014-Sep-27 12:33N 38°01' E 023°35'0 0.0
2014-Sep-27 11:33N 38°01' E 023°35'0 0.0
2014-Sep-27 10:33N 38°01' E 023°35'0 0.0
2014-Sep-27 09:33N 38°01' E 023°35'0 0.0
2014-Sep-27 08:33N 38°01' E 023°35'0 0.0
2014-Sep-27 07:33N 38°01' E 023°35'0 0.0
2014-Sep-27 06:33N 38°01' E 023°35'0 0.0
2014-Sep-27 05:33N 38°01' E 023°35'0 0.0
2014-Sep-27 04:33N 38°01' E 023°35'0 0.0
2014-Sep-27 03:33N 38°01' E 023°35'0 0.0
2014-Sep-27 02:33N 38°01' E 023°35'0 0.0
2014-Sep-27 01:33N 38°01' E 023°35'0 0.0
2014-Sep-27 00:33N 38°01' E 023°35'0 0.0
2014-Sep-26 23:33N 38°01' E 023°35'0 0.0
2014-Sep-26 22:33N 38°01' E 023°35'0 0.0
2014-Sep-26 21:33N 38°01' E 023°35'0 0.0
2014-Sep-26 20:33N 38°01' E 023°35'0 0.0
2014-Sep-26 19:32N 38°01' E 023°35'0 0.0
2014-Sep-26 18:33N 38°01' E 023°35'0 0.0
2014-Sep-26 17:33N 38°01' E 023°35'0 0.0
2014-Sep-26 16:33N 38°01' E 023°35'0 0.0
2014-Sep-26 15:33N 38°01' E 023°35'0 0.1
2014-Sep-26 14:33N 38°01' E 023°35'0 0.0
2014-Sep-26 13:33N 38°01' E 023°35'0 0.0
2014-Sep-26 12:33N 38°01' E 023°35'0 0.0
2014-Sep-26 11:33N 38°01' E 023°35'0 0.1
2014-Sep-26 10:33N 38°01' E 023°35'4 3.9
2014-Sep-26 09:33N 37°57' E 023°34'0 0.1
2014-Sep-26 08:33N 37°57' E 023°35'0 0.0
2014-Sep-26 07:33N 37°57' E 023°34'0 0.0
2014-Sep-26 06:33N 37°57' E 023°34'0 0.0
2014-Sep-26 05:33N 37°57' E 023°34'0 0.0
2014-Sep-26 04:33N 37°57' E 023°35'0 0.0
2014-Sep-26 03:33N 37°57' E 023°35'0 0.0
2014-Sep-26 02:33N 37°57' E 023°35'0 0.0
2014-Sep-26 01:33N 37°57' E 023°35'0 0.0
2014-Sep-26 00:33N 37°57' E 023°35'0 0.0
2014-Sep-25 23:33N 37°57' E 023°35'0 0.0
2014-Sep-25 22:33N 37°57' E 023°35'0 0.0
2014-Sep-25 21:33N 37°57' E 023°35'0 0.0
2014-Sep-25 20:33N 37°57' E 023°35'0 0.0
2014-Sep-25 19:33N 37°57' E 023°35'0 0.0
2014-Sep-25 18:33N 37°57' E 023°35'0 0.0
2014-Sep-25 17:33N 37°57' E 023°35'0 0.0
2014-Sep-25 16:33N 37°57' E 023°35'0 0.0
2014-Sep-25 15:33N 37°57' E 023°35'0 0.0
2014-Sep-25 14:33N 37°57' E 023°35'0 0.1
2014-Sep-25 13:33N 37°57' E 023°34'0 0.0
2014-Sep-25 12:33N 37°57' E 023°34'0 0.0
2014-Sep-25 11:33N 37°57' E 023°34'0 0.0
2014-Sep-25 10:33N 37°57' E 023°34'5 4.6
2014-Sep-25 09:33N 38°02' E 023°32'1 0.8
2014-Sep-25 08:33N 38°02' E 023°32'0 0.0
2014-Sep-25 07:33N 38°02' E 023°32'0 0.0
2014-Sep-25 06:33N 38°02' E 023°32'0 0.0
2014-Sep-25 05:33N 38°02' E 023°32'0 0.1
2014-Sep-25 04:33N 38°02' E 023°32'1 0.5
2014-Sep-25 03:33N 38°02' E 023°32'0 0.0
2014-Sep-25 02:33N 38°02' E 023°32'0 0.0
2014-Sep-25 01:33N 38°02' E 023°32'0 0.0
2014-Sep-25 00:33N 38°02' E 023°32'0 0.0
2014-Sep-24 23:32N 38°02' E 023°32'0 0.0
2014-Sep-24 22:33N 38°02' E 023°32'0 0.1
2014-Sep-24 21:33N 38°02' E 023°32'0 0.1
2014-Sep-24 20:33N 38°02' E 023°32'3 3.1
2014-Sep-24 19:33N 38°02' E 023°36'0 0.0
2014-Sep-24 18:33N 38°02' E 023°36'0 0.0
2014-Sep-24 17:33N 38°02' E 023°36'0 0.0
2014-Sep-24 16:33N 38°02' E 023°36'1 0.8
2014-Sep-24 15:33N 38°01' E 023°35'0 0.0
2014-Sep-24 14:33N 38°01' E 023°35'0 0.0
2014-Sep-24 13:30N 38°01' E 023°35'0 0.0
2014-Sep-24 12:33N 38°01' E 023°35'3 2.5
2014-Sep-24 11:31N 37°59' E 023°33'2 2.2
2014-Sep-24 10:33N 37°57' E 023°35'0 0.1
2014-Sep-24 09:33N 37°57' E 023°35'0 0.0
2014-Sep-24 08:33N 37°57' E 023°35'0 0.0
2014-Sep-24 07:33N 37°57' E 023°35'0 0.0
2014-Sep-24 06:33N 37°57' E 023°35'0 0.0
2014-Sep-24 05:33N 37°57' E 023°35'0 0.0
2014-Sep-24 04:33N 37°57' E 023°35'0 0.0
2014-Sep-24 03:33N 37°57' E 023°35'0 0.0
2014-Sep-24 02:33N 37°57' E 023°35'0 0.0
2014-Sep-24 01:33N 37°57' E 023°35'0 0.0
2014-Sep-24 00:33N 37°57' E 023°35'0 0.0
2014-Sep-23 23:33N 37°57' E 023°35'0 0.0
2014-Sep-23 22:33N 37°57' E 023°35'0 0.0
2014-Sep-23 21:33N 37°57' E 023°35'0 0.0
2014-Sep-23 20:33N 37°57' E 023°35'0 0.0
2014-Sep-23 19:32N 37°57' E 023°35'0 0.0
2014-Sep-23 18:33N 37°57' E 023°35'0 0.1
2014-Sep-23 17:33N 37°57' E 023°35'0 0.0
2014-Sep-23 16:33N 37°57' E 023°35'0 0.0
2014-Sep-23 15:33N 37°57' E 023°35'0 0.0
2014-Sep-23 14:33N 37°57' E 023°35'0 0.0
2014-Sep-23 13:33N 37°57' E 023°35'1 1.0
2014-Sep-23 12:33N 37°57' E 023°36'0 0.2
2014-Sep-23 11:33N 37°57' E 023°36'0 0.0
2014-Sep-23 10:33N 37°57' E 023°36'1 0.8
2014-Sep-23 09:33N 37°57' E 023°35'0 0.4
2014-Sep-23 08:33N 37°57' E 023°35'0 0.0
2014-Sep-23 07:33N 37°57' E 023°35'0 0.0
2014-Sep-23 06:33N 37°57' E 023°35'0 0.1
2014-Sep-23 05:33N 37°57' E 023°35'0 0.0
2014-Sep-23 04:33N 37°57' E 023°35'0 0.0
2014-Sep-23 03:33N 37°57' E 023°35'0 0.0
2014-Sep-23 02:33N 37°57' E 023°35'0 0.0
2014-Sep-23 01:33N 37°57' E 023°35'0 0.0
2014-Sep-23 00:33N 37°57' E 023°35'0 0.0
2014-Sep-22 23:33N 37°57' E 023°35'0 0.0
2014-Sep-22 22:33N 37°57' E 023°35'0 0.0
2014-Sep-22 21:33N 37°57' E 023°35'0 0.1
2014-Sep-22 20:33N 37°57' E 023°35'0 0.0
2014-Sep-22 19:33N 37°57' E 023°35'0 0.0
2014-Sep-22 18:33N 37°57' E 023°35'0 0.1
2014-Sep-22 17:33N 37°57' E 023°34'0 0.0
2014-Sep-22 16:33N 37°57' E 023°34'0 0.0
2014-Sep-22 15:33N 37°57' E 023°34'0 0.0
2014-Sep-22 14:33N 37°57' E 023°34'0 0.0
2014-Sep-22 13:33N 37°57' E 023°34'0 0.0
2014-Sep-22 12:33N 37°57' E 023°34'2 1.9
2014-Sep-22 11:33N 37°56' E 023°33'0 0.0
2014-Sep-22 10:33N 37°56' E 023°33'2 1.5
2014-Sep-22 09:33N 37°57' E 023°35'6 5.7
2014-Sep-22 08:33N 38°02' E 023°31'0 0.1
2014-Sep-22 07:33N 38°02' E 023°31'0 0.0
2014-Sep-22 06:33N 38°02' E 023°31'0 0.0
2014-Sep-22 05:33N 38°02' E 023°31'2 1.6
2014-Sep-22 04:33N 38°00' E 023°32'4 3.6
2014-Sep-22 03:33N 37°57' E 023°35'0 0.0
2014-Sep-22 02:33N 37°57' E 023°35'0 0.0
2014-Sep-22 01:33N 37°57' E 023°35'0 0.0
2014-Sep-22 00:33N 37°57' E 023°35'0 0.0
2014-Sep-21 23:33N 37°57' E 023°35'0 0.0
2014-Sep-21 22:33N 37°57' E 023°35'0 0.1
2014-Sep-21 21:33N 37°57' E 023°35'  

Dump ship's entire track history